sensor_id;sensor_type;location;lat;lon;timestamp;noise_LAeq;noise_LA_min;noise_LA_max;noise_LA01;noise_LA95
76217;Laerm;65010;50.190;18.930;2024-02-23T00:01:27;40.86;34.89;43.20;;
76217;Laerm;65010;50.190;18.930;2024-02-23T00:04:36;40.83;35.16;42.91;;
76217;Laerm;65010;50.190;18.930;2024-02-23T00:07:42;40.81;35.30;43.46;;
76217;Laerm;65010;50.190;18.930;2024-02-23T00:10:49;40.88;35.14;43.07;;
76217;Laerm;65010;50.190;18.930;2024-02-23T00:13:55;40.65;34.88;42.93;;
76217;Laerm;65010;50.190;18.930;2024-02-23T00:17:02;40.74;34.91;42.96;;
76217;Laerm;65010;50.190;18.930;2024-02-23T00:20:11;40.96;35.59;43.28;;
76217;Laerm;65010;50.190;18.930;2024-02-23T00:23:18;41.02;35.28;43.16;;
76217;Laerm;65010;50.190;18.930;2024-02-23T00:26:25;41.00;35.44;43.04;;
76217;Laerm;65010;50.190;18.930;2024-02-23T00:29:31;41.05;35.43;43.23;;
76217;Laerm;65010;50.190;18.930;2024-02-23T00:32:38;40.95;35.07;43.11;;
76217;Laerm;65010;50.190;18.930;2024-02-23T00:35:47;40.98;35.30;43.06;;
76217;Laerm;65010;50.190;18.930;2024-02-23T00:38:53;41.03;35.58;43.41;;
76217;Laerm;65010;50.190;18.930;2024-02-23T00:41:59;41.08;35.48;43.36;;
76217;Laerm;65010;50.190;18.930;2024-02-23T00:45:07;40.99;35.67;43.28;;
76217;Laerm;65010;50.190;18.930;2024-02-23T00:48:14;41.00;35.23;43.18;;
76217;Laerm;65010;50.190;18.930;2024-02-23T00:51:23;41.07;35.65;43.03;;
76217;Laerm;65010;50.190;18.930;2024-02-23T00:54:29;40.98;35.34;43.31;;
76217;Laerm;65010;50.190;18.930;2024-02-23T00:57:35;40.96;35.69;43.20;;
76217;Laerm;65010;50.190;18.930;2024-02-23T01:00:42;41.36;35.45;43.46;;
76217;Laerm;65010;50.190;18.930;2024-02-23T01:03:47;41.34;35.13;43.44;;
76217;Laerm;65010;50.190;18.930;2024-02-23T01:06:58;41.47;35.38;43.54;;
76217;Laerm;65010;50.190;18.930;2024-02-23T01:10:05;41.46;35.25;43.42;;
76217;Laerm;65010;50.190;18.930;2024-02-23T01:13:13;41.19;35.20;43.51;;
76217;Laerm;65010;50.190;18.930;2024-02-23T01:16:19;40.75;34.85;43.08;;
76217;Laerm;65010;50.190;18.930;2024-02-23T01:19:25;41.01;35.36;43.15;;
76217;Laerm;65010;50.190;18.930;2024-02-23T01:22:33;41.00;35.58;43.06;;
76217;Laerm;65010;50.190;18.930;2024-02-23T01:25:41;40.88;35.26;43.33;;
76217;Laerm;65010;50.190;18.930;2024-02-23T01:28:46;40.88;35.27;42.89;;
76217;Laerm;65010;50.190;18.930;2024-02-23T01:31:53;40.95;35.40;43.14;;
76217;Laerm;65010;50.190;18.930;2024-02-23T01:34:59;40.91;35.16;43.16;;
76217;Laerm;65010;50.190;18.930;2024-02-23T01:38:08;40.88;34.99;42.84;;
76217;Laerm;65010;50.190;18.930;2024-02-23T01:41:14;40.84;34.93;43.40;;
76217;Laerm;65010;50.190;18.930;2024-02-23T01:44:21;40.46;34.87;43.52;;
76217;Laerm;65010;50.190;18.930;2024-02-23T01:47:29;41.33;35.31;43.52;;
76217;Laerm;65010;50.190;18.930;2024-02-23T01:50:38;41.42;35.36;43.44;;
76217;Laerm;65010;50.190;18.930;2024-02-23T01:53:47;40.59;34.98;42.97;;
76217;Laerm;65010;50.190;18.930;2024-02-23T01:56:57;40.76;34.91;43.20;;
76217;Laerm;65010;50.190;18.930;2024-02-23T02:00:23;41.18;35.13;43.73;;
76217;Laerm;65010;50.190;18.930;2024-02-23T02:03:32;40.60;34.91;43.12;;
76217;Laerm;65010;50.190;18.930;2024-02-23T02:06:39;40.46;34.86;43.06;;
76217;Laerm;65010;50.190;18.930;2024-02-23T02:09:48;41.19;35.26;43.06;;
76217;Laerm;65010;50.190;18.930;2024-02-23T02:12:55;41.29;34.84;43.30;;
76217;Laerm;65010;50.190;18.930;2024-02-23T02:16:02;41.30;35.05;43.63;;
76217;Laerm;65010;50.190;18.930;2024-02-23T02:19:08;41.29;35.24;43.29;;
76217;Laerm;65010;50.190;18.930;2024-02-23T02:22:14;41.20;34.91;43.10;;
76217;Laerm;65010;50.190;18.930;2024-02-23T02:25:23;40.57;34.69;43.36;;
76217;Laerm;65010;50.190;18.930;2024-02-23T02:28:30;41.10;35.06;43.42;;
76217;Laerm;65010;50.190;18.930;2024-02-23T02:31:35;41.33;35.12;43.58;;
76217;Laerm;65010;50.190;18.930;2024-02-23T02:34:42;40.65;34.82;42.98;;
76217;Laerm;65010;50.190;18.930;2024-02-23T02:37:48;40.52;34.78;45.44;;
76217;Laerm;65010;50.190;18.930;2024-02-23T02:40:57;39.40;34.89;43.50;;
76217;Laerm;65010;50.190;18.930;2024-02-23T02:44:03;39.34;34.86;43.30;;
76217;Laerm;65010;50.190;18.930;2024-02-23T02:47:11;39.55;34.67;43.59;;
76217;Laerm;65010;50.190;18.930;2024-02-23T02:50:17;39.47;34.68;43.26;;
76217;Laerm;65010;50.190;18.930;2024-02-23T02:53:23;39.57;34.69;43.23;;
76217;Laerm;65010;50.190;18.930;2024-02-23T02:56:32;39.22;34.80;42.99;;
76217;Laerm;65010;50.190;18.930;2024-02-23T02:59:38;39.38;34.86;43.34;;
76217;Laerm;65010;50.190;18.930;2024-02-23T03:02:45;39.51;34.56;43.21;;
76217;Laerm;65010;50.190;18.930;2024-02-23T03:05:51;40.35;34.86;44.12;;
76217;Laerm;65010;50.190;18.930;2024-02-23T03:08:57;39.73;34.78;43.37;;
76217;Laerm;65010;50.190;18.930;2024-02-23T03:12:07;39.51;34.74;43.17;;
76217;Laerm;65010;50.190;18.930;2024-02-23T03:15:13;39.61;34.84;43.58;;
76217;Laerm;65010;50.190;18.930;2024-02-23T03:18:20;40.09;34.78;43.73;;
76217;Laerm;65010;50.190;18.930;2024-02-23T03:21:25;40.90;34.82;43.79;;
76217;Laerm;65010;50.190;18.930;2024-02-23T03:24:32;39.61;34.93;43.47;;
76217;Laerm;65010;50.190;18.930;2024-02-23T03:27:40;39.65;34.69;43.44;;
76217;Laerm;65010;50.190;18.930;2024-02-23T03:30:47;40.50;34.84;43.45;;
76217;Laerm;65010;50.190;18.930;2024-02-23T03:33:53;40.47;34.85;43.32;;
76217;Laerm;65010;50.190;18.930;2024-02-23T03:37:00;41.09;35.03;43.32;;
76217;Laerm;65010;50.190;18.930;2024-02-23T03:40:08;40.98;35.21;43.41;;
76217;Laerm;65010;50.190;18.930;2024-02-23T03:43:18;41.22;35.12;43.39;;
76217;Laerm;65010;50.190;18.930;2024-02-23T03:46:24;41.08;34.74;43.44;;
76217;Laerm;65010;50.190;18.930;2024-02-23T03:49:30;41.20;35.15;43.28;;
76217;Laerm;65010;50.190;18.930;2024-02-23T03:52:36;41.14;34.93;43.43;;
76217;Laerm;65010;50.190;18.930;2024-02-23T03:55:43;41.25;35.04;43.88;;
76217;Laerm;65010;50.190;18.930;2024-02-23T03:58:51;41.25;34.87;43.26;;
76217;Laerm;65010;50.190;18.930;2024-02-23T04:01:58;41.28;35.26;43.52;;
76217;Laerm;65010;50.190;18.930;2024-02-23T04:05:05;41.37;35.23;43.69;;
76217;Laerm;65010;50.190;18.930;2024-02-23T04:08:12;41.35;34.89;43.91;;
76217;Laerm;65010;50.190;18.930;2024-02-23T04:11:20;41.26;35.03;43.59;;
76217;Laerm;65010;50.190;18.930;2024-02-23T04:14:30;41.25;34.97;43.50;;
76217;Laerm;65010;50.190;18.930;2024-02-23T04:17:36;41.21;34.95;43.60;;
76217;Laerm;65010;50.190;18.930;2024-02-23T04:20:43;41.31;34.91;43.74;;
76217;Laerm;65010;50.190;18.930;2024-02-23T04:23:48;41.31;35.21;43.50;;
76217;Laerm;65010;50.190;18.930;2024-02-23T04:26:55;41.31;34.90;43.40;;
76217;Laerm;65010;50.190;18.930;2024-02-23T04:30:05;41.23;34.99;44.07;;
76217;Laerm;65010;50.190;18.930;2024-02-23T04:33:12;41.25;34.73;43.38;;
76217;Laerm;65010;50.190;18.930;2024-02-23T04:36:19;41.24;35.01;43.52;;
76217;Laerm;65010;50.190;18.930;2024-02-23T04:39:26;41.29;35.04;43.33;;
76217;Laerm;65010;50.190;18.930;2024-02-23T04:42:32;41.47;34.96;43.94;;
76217;Laerm;65010;50.190;18.930;2024-02-23T04:45:41;41.34;35.02;44.09;;
76217;Laerm;65010;50.190;18.930;2024-02-23T04:48:47;41.28;34.71;43.76;;
76217;Laerm;65010;50.190;18.930;2024-02-23T04:51:54;41.17;34.74;43.55;;
76217;Laerm;65010;50.190;18.930;2024-02-23T04:55:00;41.25;34.96;43.49;;
76217;Laerm;65010;50.190;18.930;2024-02-23T04:58:06;41.31;35.11;43.47;;
76217;Laerm;65010;50.190;18.930;2024-02-23T05:01:17;41.29;34.87;43.58;;
76217;Laerm;65010;50.190;18.930;2024-02-23T05:04:24;41.24;34.99;43.50;;
76217;Laerm;65010;50.190;18.930;2024-02-23T05:07:29;41.33;35.08;43.48;;
76217;Laerm;65010;50.190;18.930;2024-02-23T05:10:36;41.32;35.19;43.52;;
76217;Laerm;65010;50.190;18.930;2024-02-23T05:13:42;41.29;35.28;43.68;;
76217;Laerm;65010;50.190;18.930;2024-02-23T05:16:51;41.26;34.90;43.65;;
76217;Laerm;65010;50.190;18.930;2024-02-23T05:19:57;41.16;34.94;43.26;;
76217;Laerm;65010;50.190;18.930;2024-02-23T05:23:04;41.13;35.19;43.59;;
76217;Laerm;65010;50.190;18.930;2024-02-23T05:26:10;41.21;35.15;43.40;;
76217;Laerm;65010;50.190;18.930;2024-02-23T05:29:17;41.25;35.49;43.32;;
76217;Laerm;65010;50.190;18.930;2024-02-23T05:32:27;41.32;35.84;43.64;;
76217;Laerm;65010;50.190;18.930;2024-02-23T05:35:34;41.49;35.60;43.50;;
76217;Laerm;65010;50.190;18.930;2024-02-23T05:38:40;41.41;35.59;43.36;;
76217;Laerm;65010;50.190;18.930;2024-02-23T05:41:49;41.37;35.59;43.43;;
76217;Laerm;65010;50.190;18.930;2024-02-23T05:44:55;41.30;35.52;43.67;;
76217;Laerm;65010;50.190;18.930;2024-02-23T05:48:05;41.25;35.50;43.55;;
76217;Laerm;65010;50.190;18.930;2024-02-23T05:51:11;41.23;35.49;43.13;;
76217;Laerm;65010;50.190;18.930;2024-02-23T05:54:17;41.21;35.90;43.39;;
76217;Laerm;65010;50.190;18.930;2024-02-23T05:57:23;41.38;35.30;43.37;;
76217;Laerm;65010;50.190;18.930;2024-02-23T06:00:30;41.65;35.47;44.11;;
76217;Laerm;65010;50.190;18.930;2024-02-23T06:03:38;41.38;35.78;43.71;;
76217;Laerm;65010;50.190;18.930;2024-02-23T06:06:44;41.31;36.27;43.26;;
76217;Laerm;65010;50.190;18.930;2024-02-23T06:09:50;41.72;35.89;44.35;;
76217;Laerm;65010;50.190;18.930;2024-02-23T06:12:59;41.32;35.09;43.30;;
76217;Laerm;65010;50.190;18.930;2024-02-23T06:16:11;41.35;34.48;43.69;;
76217;Laerm;65010;50.190;18.930;2024-02-23T06:19:20;41.44;35.42;43.74;;
76217;Laerm;65010;50.190;18.930;2024-02-23T06:22:26;41.37;35.13;43.89;;
76217;Laerm;65010;50.190;18.930;2024-02-23T06:25:32;41.49;34.79;43.98;;
76217;Laerm;65010;50.190;18.930;2024-02-23T06:28:39;40.93;34.87;43.49;;
76217;Laerm;65010;50.190;18.930;2024-02-23T06:31:45;40.20;34.78;43.46;;
76217;Laerm;65010;50.190;18.930;2024-02-23T06:34:55;40.81;34.86;43.55;;
76217;Laerm;65010;50.190;18.930;2024-02-23T06:38:04;41.27;35.71;43.73;;
76217;Laerm;65010;50.190;18.930;2024-02-23T06:41:10;41.31;36.32;43.47;;
76217;Laerm;65010;50.190;18.930;2024-02-23T06:44:18;41.28;35.22;43.69;;
76217;Laerm;65010;50.190;18.930;2024-02-23T06:47:23;41.46;37.00;43.82;;
76217;Laerm;65010;50.190;18.930;2024-02-23T06:50:33;41.49;35.31;43.41;;
76217;Laerm;65010;50.190;18.930;2024-02-23T06:53:39;41.35;35.09;43.78;;
76217;Laerm;65010;50.190;18.930;2024-02-23T06:56:45;41.36;36.58;43.27;;
76217;Laerm;65010;50.190;18.930;2024-02-23T06:59:56;41.44;35.92;43.35;;
76217;Laerm;65010;50.190;18.930;2024-02-23T07:03:03;41.37;35.56;43.69;;
76217;Laerm;65010;50.190;18.930;2024-02-23T07:06:12;41.49;35.11;43.68;;
76217;Laerm;65010;50.190;18.930;2024-02-23T07:09:22;41.40;36.43;43.43;;
76217;Laerm;65010;50.190;18.930;2024-02-23T07:12:27;41.34;36.82;43.15;;
76217;Laerm;65010;50.190;18.930;2024-02-23T07:15:34;41.32;37.41;43.21;;
76217;Laerm;65010;50.190;18.930;2024-02-23T07:18:41;41.31;35.08;43.15;;
76217;Laerm;65010;50.190;18.930;2024-02-23T07:21:50;41.33;38.13;43.35;;
76217;Laerm;65010;50.190;18.930;2024-02-23T07:24:56;41.21;35.76;43.06;;
76217;Laerm;65010;50.190;18.930;2024-02-23T07:28:03;41.24;36.60;43.45;;
76217;Laerm;65010;50.190;18.930;2024-02-23T07:31:13;41.31;35.80;43.62;;
76217;Laerm;65010;50.190;18.930;2024-02-23T07:34:20;41.19;34.97;43.44;;
76217;Laerm;65010;50.190;18.930;2024-02-23T07:37:30;40.20;34.57;43.63;;
76217;Laerm;65010;50.190;18.930;2024-02-23T07:40:39;39.93;34.66;43.82;;
76217;Laerm;65010;50.190;18.930;2024-02-23T07:43:45;40.01;34.77;43.48;;
76217;Laerm;65010;50.190;18.930;2024-02-23T07:46:52;39.97;34.23;43.23;;
76217;Laerm;65010;50.190;18.930;2024-02-23T07:49:58;39.61;34.53;43.30;;
76217;Laerm;65010;50.190;18.930;2024-02-23T07:53:07;40.48;34.69;43.75;;
76217;Laerm;65010;50.190;18.930;2024-02-23T07:56:13;40.44;34.75;43.41;;
76217;Laerm;65010;50.190;18.930;2024-02-23T07:59:20;40.47;34.78;43.83;;
76217;Laerm;65010;50.190;18.930;2024-02-23T08:02:26;40.65;35.04;43.56;;
76217;Laerm;65010;50.190;18.930;2024-02-23T08:05:33;40.69;34.98;43.52;;
76217;Laerm;65010;50.190;18.930;2024-02-23T08:08:41;40.61;34.71;43.69;;
76217;Laerm;65010;50.190;18.930;2024-02-23T08:11:48;40.50;34.93;43.49;;
76217;Laerm;65010;50.190;18.930;2024-02-23T08:14:55;40.47;34.65;43.49;;
76217;Laerm;65010;50.190;18.930;2024-02-23T08:18:02;40.84;34.89;43.15;;
76217;Laerm;65010;50.190;18.930;2024-02-23T08:21:08;40.87;34.91;43.19;;
76217;Laerm;65010;50.190;18.930;2024-02-23T08:24:18;40.82;34.92;43.38;;
76217;Laerm;65010;50.190;18.930;2024-02-23T08:27:25;40.85;34.65;43.61;;
76217;Laerm;65010;50.190;18.930;2024-02-23T08:30:32;40.89;34.79;43.34;;
76217;Laerm;65010;50.190;18.930;2024-02-23T08:33:38;40.82;34.76;43.56;;
76217;Laerm;65010;50.190;18.930;2024-02-23T08:36:44;40.88;34.83;43.25;;
76217;Laerm;65010;50.190;18.930;2024-02-23T08:39:53;40.45;34.66;43.33;;
76217;Laerm;65010;50.190;18.930;2024-02-23T08:42:59;40.22;34.89;43.32;;
76217;Laerm;65010;50.190;18.930;2024-02-23T08:46:09;40.67;34.76;43.19;;
76217;Laerm;65010;50.190;18.930;2024-02-23T08:49:16;39.84;34.66;43.46;;
76217;Laerm;65010;50.190;18.930;2024-02-23T08:52:24;39.29;34.46;43.50;;
76217;Laerm;65010;50.190;18.930;2024-02-23T08:55:33;40.16;34.75;43.36;;
76217;Laerm;65010;50.190;18.930;2024-02-23T08:58:39;39.75;34.77;43.25;;
76217;Laerm;65010;50.190;18.930;2024-02-23T09:01:46;39.58;34.75;43.29;;
76217;Laerm;65010;50.190;18.930;2024-02-23T09:04:53;39.26;34.75;43.24;;
76217;Laerm;65010;50.190;18.930;2024-02-23T09:08:00;39.35;34.80;43.26;;
76217;Laerm;65010;50.190;18.930;2024-02-23T09:11:08;39.20;34.65;43.25;;
76217;Laerm;65010;50.190;18.930;2024-02-23T09:14:17;39.45;34.67;43.57;;
76217;Laerm;65010;50.190;18.930;2024-02-23T09:17:22;39.87;34.74;43.16;;
76217;Laerm;65010;50.190;18.930;2024-02-23T09:20:29;39.65;34.52;43.27;;
76217;Laerm;65010;50.190;18.930;2024-02-23T09:23:35;39.31;34.60;43.18;;
76217;Laerm;65010;50.190;18.930;2024-02-23T09:26:46;39.34;34.63;43.50;;
76217;Laerm;65010;50.190;18.930;2024-02-23T09:29:52;39.02;34.63;43.43;;
76217;Laerm;65010;50.190;18.930;2024-02-23T09:32:59;38.91;34.73;43.54;;
76217;Laerm;65010;50.190;18.930;2024-02-23T09:36:06;39.07;34.66;43.28;;
76217;Laerm;65010;50.190;18.930;2024-02-23T09:39:13;39.17;34.74;43.10;;
76217;Laerm;65010;50.190;18.930;2024-02-23T09:42:23;39.26;34.51;43.32;;
76217;Laerm;65010;50.190;18.930;2024-02-23T09:45:34;39.10;34.31;43.11;;
76217;Laerm;65010;50.190;18.930;2024-02-23T09:48:40;39.23;34.73;43.59;;
76217;Laerm;65010;50.190;18.930;2024-02-23T09:51:49;39.18;34.63;43.10;;
76217;Laerm;65010;50.190;18.930;2024-02-23T09:54:55;39.15;34.77;43.06;;
76217;Laerm;65010;50.190;18.930;2024-02-23T09:58:06;39.09;34.77;43.32;;
76217;Laerm;65010;50.190;18.930;2024-02-23T10:01:26;39.30;34.58;43.71;;
76217;Laerm;65010;50.190;18.930;2024-02-23T10:04:35;39.11;34.78;44.01;;
76217;Laerm;65010;50.190;18.930;2024-02-23T10:07:42;39.07;34.86;43.36;;
76217;Laerm;65010;50.190;18.930;2024-02-23T10:10:50;39.02;34.51;43.49;;
76217;Laerm;65010;50.190;18.930;2024-02-23T10:13:59;38.92;34.82;43.77;;
76217;Laerm;65010;50.190;18.930;2024-02-23T10:17:07;38.88;34.49;43.25;;
76217;Laerm;65010;50.190;18.930;2024-02-23T10:20:13;39.21;34.51;43.39;;
76217;Laerm;65010;50.190;18.930;2024-02-23T10:23:21;39.05;34.80;43.37;;
76217;Laerm;65010;50.190;18.930;2024-02-23T10:26:27;39.16;34.69;43.30;;
76217;Laerm;65010;50.190;18.930;2024-02-23T10:29:36;39.36;34.65;43.43;;
76217;Laerm;65010;50.190;18.930;2024-02-23T10:32:43;39.53;34.78;43.16;;
76217;Laerm;65010;50.190;18.930;2024-02-23T10:35:56;39.71;34.61;43.44;;
76217;Laerm;65010;50.190;18.930;2024-02-23T10:39:04;39.81;34.76;43.28;;
76217;Laerm;65010;50.190;18.930;2024-02-23T10:42:17;39.88;34.72;43.30;;
76217;Laerm;65010;50.190;18.930;2024-02-23T10:45:30;39.64;34.65;43.18;;
76217;Laerm;65010;50.190;18.930;2024-02-23T10:48:39;39.81;34.55;43.04;;
76217;Laerm;65010;50.190;18.930;2024-02-23T10:51:46;40.02;34.58;43.08;;
76217;Laerm;65010;50.190;18.930;2024-02-23T10:54:55;39.74;34.46;43.24;;
76217;Laerm;65010;50.190;18.930;2024-02-23T10:58:04;39.74;34.66;43.53;;
76217;Laerm;65010;50.190;18.930;2024-02-23T11:01:21;39.99;34.84;43.56;;
76217;Laerm;65010;50.190;18.930;2024-02-23T11:04:31;39.81;34.85;43.05;;
76217;Laerm;65010;50.190;18.930;2024-02-23T11:07:40;39.67;34.59;43.27;;
76217;Laerm;65010;50.190;18.930;2024-02-23T11:10:50;39.95;34.60;43.39;;
76217;Laerm;65010;50.190;18.930;2024-02-23T11:13:57;39.77;34.64;43.54;;
76217;Laerm;65010;50.190;18.930;2024-02-23T11:17:06;39.62;34.55;43.05;;
76217;Laerm;65010;50.190;18.930;2024-02-23T11:20:15;39.55;34.69;43.32;;
76217;Laerm;65010;50.190;18.930;2024-02-23T11:23:40;39.10;34.84;43.09;;
76217;Laerm;65010;50.190;18.930;2024-02-23T11:26:48;39.04;34.81;43.21;;
76217;Laerm;65010;50.190;18.930;2024-02-23T11:30:01;38.89;34.53;43.06;;
76217;Laerm;65010;50.190;18.930;2024-02-23T11:33:10;39.03;34.78;43.24;;
76217;Laerm;65010;50.190;18.930;2024-02-23T11:36:23;39.01;34.76;43.47;;
76217;Laerm;65010;50.190;18.930;2024-02-23T11:39:31;39.08;34.69;43.47;;
76217;Laerm;65010;50.190;18.930;2024-02-23T11:42:40;38.87;34.61;43.25;;
76217;Laerm;65010;50.190;18.930;2024-02-23T11:45:47;38.90;34.67;43.46;;
76217;Laerm;65010;50.190;18.930;2024-02-23T11:48:56;38.89;34.75;43.16;;
76217;Laerm;65010;50.190;18.930;2024-02-23T11:52:04;38.80;34.72;42.78;;
76217;Laerm;65010;50.190;18.930;2024-02-23T11:55:10;38.75;34.69;43.49;;
76217;Laerm;65010;50.190;18.930;2024-02-23T11:58:21;38.67;34.68;43.08;;
76217;Laerm;65010;50.190;18.930;2024-02-23T12:01:29;39.22;34.62;43.34;;
76217;Laerm;65010;50.190;18.930;2024-02-23T12:04:39;39.15;34.64;43.53;;
76217;Laerm;65010;50.190;18.930;2024-02-23T12:07:45;38.85;34.52;43.45;;
76217;Laerm;65010;50.190;18.930;2024-02-23T12:10:53;38.92;34.83;43.06;;
76217;Laerm;65010;50.190;18.930;2024-02-23T12:14:00;39.83;34.72;43.25;;
76217;Laerm;65010;50.190;18.930;2024-02-23T12:17:11;39.77;34.70;43.27;;
76217;Laerm;65010;50.190;18.930;2024-02-23T12:20:19;39.73;34.54;43.81;;
76217;Laerm;65010;50.190;18.930;2024-02-23T12:23:27;39.82;34.72;43.36;;
76217;Laerm;65010;50.190;18.930;2024-02-23T12:26:32;39.36;34.73;43.49;;
76217;Laerm;65010;50.190;18.930;2024-02-23T12:29:39;39.65;34.62;43.93;;
76217;Laerm;65010;50.190;18.930;2024-02-23T12:32:45;39.86;34.78;43.35;;
76217;Laerm;65010;50.190;18.930;2024-02-23T12:35:58;39.76;34.81;43.48;;
76217;Laerm;65010;50.190;18.930;2024-02-23T12:39:04;39.83;34.62;43.35;;
76217;Laerm;65010;50.190;18.930;2024-02-23T12:42:11;39.14;34.59;43.31;;
76217;Laerm;65010;50.190;18.930;2024-02-23T12:45:17;39.14;34.79;43.24;;
76217;Laerm;65010;50.190;18.930;2024-02-23T12:48:24;39.04;34.69;43.51;;
76217;Laerm;65010;50.190;18.930;2024-02-23T12:51:32;39.57;34.78;43.47;;
76217;Laerm;65010;50.190;18.930;2024-02-23T12:54:38;39.80;34.78;44.26;;
76217;Laerm;65010;50.190;18.930;2024-02-23T12:57:44;39.69;34.55;43.36;;
76217;Laerm;65010;50.190;18.930;2024-02-23T13:00:51;39.48;34.59;43.52;;
76217;Laerm;65010;50.190;18.930;2024-02-23T13:03:57;39.29;34.56;43.20;;
76217;Laerm;65010;50.190;18.930;2024-02-23T13:07:06;39.55;34.52;43.80;;
76217;Laerm;65010;50.190;18.930;2024-02-23T13:10:12;40.25;34.77;43.30;;
76217;Laerm;65010;50.190;18.930;2024-02-23T13:13:23;39.87;34.68;43.49;;
76217;Laerm;65010;50.190;18.930;2024-02-23T13:16:29;39.61;34.68;43.46;;
76217;Laerm;65010;50.190;18.930;2024-02-23T13:19:35;39.53;34.73;43.71;;
76217;Laerm;65010;50.190;18.930;2024-02-23T13:22:44;39.49;34.73;43.05;;
76217;Laerm;65010;50.190;18.930;2024-02-23T13:25:51;40.08;34.51;43.27;;
76217;Laerm;65010;50.190;18.930;2024-02-23T13:28:56;39.99;34.74;43.45;;
76217;Laerm;65010;50.190;18.930;2024-02-23T13:32:04;39.76;34.65;43.06;;
76217;Laerm;65010;50.190;18.930;2024-02-23T13:35:13;39.81;34.81;43.04;;
76217;Laerm;65010;50.190;18.930;2024-02-23T13:38:23;39.81;34.66;43.09;;
76217;Laerm;65010;50.190;18.930;2024-02-23T13:41:30;39.80;34.77;43.52;;
76217;Laerm;65010;50.190;18.930;2024-02-23T13:44:38;39.67;34.70;43.16;;
76217;Laerm;65010;50.190;18.930;2024-02-23T13:47:57;39.67;34.47;43.25;;
76217;Laerm;65010;50.190;18.930;2024-02-23T13:51:04;39.57;34.69;43.10;;
76217;Laerm;65010;50.190;18.930;2024-02-23T13:54:13;39.60;34.88;43.17;;
76217;Laerm;65010;50.190;18.930;2024-02-23T13:57:22;39.63;34.60;42.85;;
76217;Laerm;65010;50.190;18.930;2024-02-23T14:00:28;39.65;34.71;43.58;;
76217;Laerm;65010;50.190;18.930;2024-02-23T14:03:35;39.60;34.56;43.23;;
76217;Laerm;65010;50.190;18.930;2024-02-23T14:06:40;39.61;34.61;43.27;;
76217;Laerm;65010;50.190;18.930;2024-02-23T14:09:50;39.67;34.70;43.58;;
76217;Laerm;65010;50.190;18.930;2024-02-23T14:12:56;39.68;34.68;43.30;;
76217;Laerm;65010;50.190;18.930;2024-02-23T14:16:04;39.75;34.87;43.58;;
76217;Laerm;65010;50.190;18.930;2024-02-23T14:19:10;39.74;34.59;42.98;;
76217;Laerm;65010;50.190;18.930;2024-02-23T14:22:17;39.77;34.84;43.30;;
76217;Laerm;65010;50.190;18.930;2024-02-23T14:25:25;39.80;34.76;43.29;;
76217;Laerm;65010;50.190;18.930;2024-02-23T14:28:32;39.80;34.84;43.05;;
76217;Laerm;65010;50.190;18.930;2024-02-23T14:31:38;39.72;34.79;43.32;;
76217;Laerm;65010;50.190;18.930;2024-02-23T14:34:45;39.66;34.76;43.41;;
76217;Laerm;65010;50.190;18.930;2024-02-23T14:37:53;39.76;34.72;43.46;;
76217;Laerm;65010;50.190;18.930;2024-02-23T14:41:03;39.88;34.69;43.50;;
76217;Laerm;65010;50.190;18.930;2024-02-23T14:44:11;39.80;34.74;43.30;;
76217;Laerm;65010;50.190;18.930;2024-02-23T14:47:18;39.73;34.47;43.01;;
76217;Laerm;65010;50.190;18.930;2024-02-23T14:50:36;39.79;34.63;43.34;;
76217;Laerm;65010;50.190;18.930;2024-02-23T14:53:43;39.79;34.70;43.07;;
76217;Laerm;65010;50.190;18.930;2024-02-23T14:56:51;39.96;34.72;43.47;;
76217;Laerm;65010;50.190;18.930;2024-02-23T14:59:58;39.05;34.70;43.10;;
76217;Laerm;65010;50.190;18.930;2024-02-23T15:03:06;38.79;34.78;42.91;;
76217;Laerm;65010;50.190;18.930;2024-02-23T15:06:13;39.58;34.72;43.43;;
76217;Laerm;65010;50.190;18.930;2024-02-23T15:09:21;39.67;34.57;43.27;;
76217;Laerm;65010;50.190;18.930;2024-02-23T15:12:30;40.16;34.79;43.43;;
76217;Laerm;65010;50.190;18.930;2024-02-23T15:15:36;40.27;34.64;43.48;;
76217;Laerm;65010;50.190;18.930;2024-02-23T15:18:44;39.96;34.71;43.20;;
76217;Laerm;65010;50.190;18.930;2024-02-23T15:21:50;39.88;34.90;43.35;;
76217;Laerm;65010;50.190;18.930;2024-02-23T15:24:57;39.83;34.77;43.16;;
76217;Laerm;65010;50.190;18.930;2024-02-23T15:28:06;39.82;34.55;43.12;;
76217;Laerm;65010;50.190;18.930;2024-02-23T15:31:14;39.77;34.64;43.72;;
76217;Laerm;65010;50.190;18.930;2024-02-23T15:34:20;40.60;34.88;43.86;;
76217;Laerm;65010;50.190;18.930;2024-02-23T15:37:26;41.25;35.06;43.53;;
76217;Laerm;65010;50.190;18.930;2024-02-23T15:40:32;41.24;35.46;43.40;;
76217;Laerm;65010;50.190;18.930;2024-02-23T15:43:41;41.18;35.16;43.38;;
76217;Laerm;65010;50.190;18.930;2024-02-23T15:46:47;41.11;35.17;43.22;;
76217;Laerm;65010;50.190;18.930;2024-02-23T15:49:54;41.07;35.27;42.95;;
76217;Laerm;65010;50.190;18.930;2024-02-23T15:53:19;41.04;34.81;43.21;;
76217;Laerm;65010;50.190;18.930;2024-02-23T15:56:27;41.11;34.96;43.52;;
76217;Laerm;65010;50.190;18.930;2024-02-23T15:59:35;41.07;35.24;43.24;;
76217;Laerm;65010;50.190;18.930;2024-02-23T16:02:42;41.07;35.14;43.40;;
76217;Laerm;65010;50.190;18.930;2024-02-23T16:05:48;41.09;35.14;43.12;;
76217;Laerm;65010;50.190;18.930;2024-02-23T16:08:55;41.08;35.24;43.45;;
76217;Laerm;65010;50.190;18.930;2024-02-23T16:12:01;41.13;35.02;43.39;;
76217;Laerm;65010;50.190;18.930;2024-02-23T16:15:10;41.19;35.56;43.26;;
76217;Laerm;65010;50.190;18.930;2024-02-23T16:18:16;41.13;35.20;43.14;;
76217;Laerm;65010;50.190;18.930;2024-02-23T16:21:23;41.19;35.09;43.39;;
76217;Laerm;65010;50.190;18.930;2024-02-23T16:24:28;41.30;35.48;43.30;;
76217;Laerm;65010;50.190;18.930;2024-02-23T16:27:35;41.30;35.60;43.56;;
76217;Laerm;65010;50.190;18.930;2024-02-23T16:30:47;41.26;35.53;43.48;;
76217;Laerm;65010;50.190;18.930;2024-02-23T16:33:54;41.19;35.01;43.32;;
76217;Laerm;65010;50.190;18.930;2024-02-23T16:36:59;41.31;35.26;43.61;;
76217;Laerm;65010;50.190;18.930;2024-02-23T16:40:09;41.41;35.17;43.56;;
76217;Laerm;65010;50.190;18.930;2024-02-23T16:43:25;41.40;35.54;43.70;;
76217;Laerm;65010;50.190;18.930;2024-02-23T16:46:34;41.43;35.52;43.63;;
76217;Laerm;65010;50.190;18.930;2024-02-23T16:49:40;41.41;35.66;43.55;;
76217;Laerm;65010;50.190;18.930;2024-02-23T16:52:47;41.38;37.30;43.38;;
76217;Laerm;65010;50.190;18.930;2024-02-23T16:55:52;41.39;36.41;43.79;;
76217;Laerm;65010;50.190;18.930;2024-02-23T16:59:04;41.43;35.61;43.43;;
76217;Laerm;65010;50.190;18.930;2024-02-23T17:02:12;41.53;36.01;44.04;;
76217;Laerm;65010;50.190;18.930;2024-02-23T17:05:19;41.49;35.62;43.66;;
76217;Laerm;65010;50.190;18.930;2024-02-23T17:08:25;41.52;36.10;43.89;;
76217;Laerm;65010;50.190;18.930;2024-02-23T17:11:31;41.50;35.39;43.64;;
76217;Laerm;65010;50.190;18.930;2024-02-23T17:14:37;41.51;35.95;43.53;;